Time;durP1;ratioP1;P1;durP2;ratioP2;P2;SDS_P1;SDS_P2;PMS_P1;PMS_P2;Temp;Humidity;BMP_temperature;BMP_pressure;BME280_temperature;BME280_humidity;BME280_pressure;Samples;Min_cycle;Max_cycle;Signal;HPM_P1;HPM_P2
2022/05/28 00:02:17;;;;;;;;;;;24.80;55.50;;;;;;4916700;28;87692;-50
2022/05/28 00:04:43;;;;;;;;;;;24.70;55.50;;;;;;4967741;28;87073;-50
2022/05/28 00:07:08;;;;;;;;;;;24.80;55.50;;;;;;4970370;28;87831;-50
2022/05/28 00:09:34;;;;;;;;;;;24.80;55.50;;;;;;4967721;28;87028;-50
2022/05/28 00:15:03;;;;;;;;;;;24.80;55.50;;;;;;4964820;28;87025;-51
2022/05/28 00:20:32;;;;;;;;;;;24.70;55.50;;;;;;4965152;28;86771;-51
2022/05/28 00:26:01;;;;;;;;;;;24.70;55.40;;;;;;4964109;28;87780;-51
2022/05/28 00:31:30;;;;;;;;;;;24.60;55.50;;;;;;4967200;28;86789;-50
2022/05/28 00:36:59;;;;;;;;;;;24.60;55.50;;;;;;4964257;28;87058;-50
2022/05/28 00:39:24;;;;;;;;;;;24.60;55.40;;;;;;4967586;28;87044;-50
2022/05/28 00:41:50;;;;;;;;;;;24.60;55.50;;;;;;4932746;28;87031;-51
2022/05/28 00:47:18;;;;;;;;;;;24.50;55.40;;;;;;4963811;28;86750;-50
2022/05/28 00:49:44;;;;;;;;;;;24.60;55.50;;;;;;4966845;28;87132;-50
2022/05/28 00:55:13;;;;;;;;;;;24.50;55.40;;;;;;4967045;28;86802;-50
2022/05/28 01:00:42;;;;;;;;;;;24.50;55.50;;;;;;4964302;28;86819;-50
2022/05/28 01:06:17;;;;;;;;;;;24.50;55.50;;;;;;4964111;28;86752;-50
2022/05/28 01:12:03;;;;;;;;;;;24.40;55.50;;;;;;4964517;28;86469;-51
2022/05/28 01:14:36;;;;;;;;;;;24.40;55.50;;;;;;4966180;28;89299;-50
2022/05/28 01:20:04;;;;;;;;;;;24.40;55.50;;;;;;4966286;28;87722;-50
2022/05/28 01:25:52;;;;;;;;;;;24.30;56.10;;;;;;4967090;28;86848;-50
2022/05/28 01:31:22;;;;;;;;;;;24.30;55.50;;;;;;4963890;28;86732;-50
2022/05/28 01:36:50;;;;;;;;;;;24.30;55.60;;;;;;4963346;28;87179;-50
2022/05/28 01:42:19;;;;;;;;;;;24.30;55.50;;;;;;4963689;28;86826;-50
2022/05/28 01:47:50;;;;;;;;;;;24.30;55.50;;;;;;4962717;28;87848;-50
2022/05/28 01:59:07;;;;;;;;;;;24.20;55.70;;;;;;4963916;28;86967;-51
2022/05/28 02:04:36;;;;;;;;;;;24.20;55.70;;;;;;4966914;28;86798;-50
2022/05/28 02:10:07;;;;;;;;;;;24.10;55.60;;;;;;4966796;28;86713;-50
2022/05/28 02:12:36;;;;;;;;;;;24.10;55.60;;;;;;4969198;28;88961;-50
2022/05/28 02:18:04;;;;;;;;;;;24.10;55.80;;;;;;4966699;28;87335;-50
2022/05/28 02:23:59;;;;;;;;;;;24.10;55.70;;;;;;4966700;28;86816;-50
2022/05/28 02:29:30;;;;;;;;;;;24.00;55.70;;;;;;4966115;28;86753;-50
2022/05/28 02:34:58;;;;;;;;;;;24.00;55.90;;;;;;4966494;28;86156;-50
2022/05/28 02:37:25;;;;;;;;;;;24.00;55.80;;;;;;4969403;28;87146;-50
2022/05/28 02:39:51;;;;;;;;;;;24.00;55.80;;;;;;4969416;28;86850;-50
2022/05/28 02:45:19;;;;;;;;;;;23.90;55.80;;;;;;4966320;28;86768;-50
2022/05/28 02:47:46;;;;;;;;;;;23.90;55.80;;;;;;4934005;28;86982;-50
2022/05/28 02:53:14;;;;;;;;;;;23.90;55.90;;;;;;4966895;28;86745;-50
2022/05/28 02:58:43;;;;;;;;;;;23.90;55.90;;;;;;4966437;28;86816;-50
2022/05/28 03:04:11;;;;;;;;;;;23.90;56.00;;;;;;4965971;28;86950;-50
2022/05/28 03:09:40;;;;;;;;;;;23.80;56.00;;;;;;4965220;28;87683;-50
2022/05/28 03:15:15;;;;;;;;;;;23.70;56.00;;;;;;4966121;28;86852;-51
2022/05/28 03:20:44;;;;;;;;;;;23.70;56.10;;;;;;4968553;28;87108;-50
2022/05/28 03:26:14;;;;;;;;;;;23.70;56.20;;;;;;4965751;28;86811;-50
2022/05/28 03:28:40;;;;;;;;;;;23.70;56.00;;;;;;4969281;28;86062;-50
2022/05/28 03:34:08;;;;;;;;;;;23.70;56.10;;;;;;4965562;28;87059;-50
2022/05/28 03:39:37;;;;;;;;;;;23.60;56.10;;;;;;4968360;28;87294;-50
2022/05/28 03:45:05;;;;;;;;;;;23.60;56.20;;;;;;4968643;28;86717;-50
2022/05/28 03:50:34;;;;;;;;;;;23.50;56.20;;;;;;4961971;28;87014;-50
2022/05/28 03:56:03;;;;;;;;;;;23.50;56.20;;;;;;4965634;28;86192;-50
2022/05/28 04:01:32;;;;;;;;;;;23.50;56.20;;;;;;4967902;28;86740;-50
2022/05/28 04:07:00;;;;;;;;;;;23.50;56.20;;;;;;4965331;28;86842;-50
2022/05/28 04:12:30;;;;;;;;;;;23.40;56.20;;;;;;4967571;28;86848;-50
2022/05/28 04:17:59;;;;;;;;;;;23.40;56.20;;;;;;4966549;28;87039;-50
2022/05/28 06:06:20;;;;;;;;;;;23.20;56.30;;;;;;4956402;28;88602;-50
2022/05/28 06:08:46;;;;;;;;;;;23.10;56.30;;;;;;4948714;28;89665;-50
2022/05/28 06:11:12;;;;;;;;;;;23.10;56.30;;;;;;4949875;28;86782;-50
2022/05/28 06:13:37;;;;;;;;;;;23.20;56.40;;;;;;4949872;28;86881;-50
2022/05/28 06:16:03;;;;;;;;;;;23.20;56.40;;;;;;4949276;28;88638;-50
2022/05/28 06:18:29;;;;;;;;;;;23.20;56.40;;;;;;4949482;28;86881;-51
2022/05/28 06:20:56;;;;;;;;;;;23.20;56.40;;;;;;4949476;28;87984;-51
2022/05/28 06:23:21;;;;;;;;;;;23.10;56.40;;;;;;4951907;28;87653;-50
2022/05/28 06:25:47;;;;;;;;;;;23.10;56.40;;;;;;4950208;28;86884;-50
2022/05/28 06:28:13;;;;;;;;;;;23.10;56.40;;;;;;4930590;28;87577;-50
2022/05/28 06:30:42;;;;;;;;;;;23.20;56.50;;;;;;4949712;28;87332;-50
2022/05/28 06:33:08;;;;;;;;;;;23.10;56.40;;;;;;4948765;28;88027;-50
2022/05/28 06:35:33;;;;;;;;;;;23.10;56.50;;;;;;4949100;28;87491;-50
2022/05/28 06:37:59;;;;;;;;;;;23.20;56.50;;;;;;4949528;28;86944;-50
2022/05/28 06:40:25;;;;;;;;;;;23.20;56.50;;;;;;4949614;28;86822;-50
2022/05/28 06:42:51;;;;;;;;;;;23.20;56.60;;;;;;4948852;28;88332;-50
2022/05/28 06:45:17;;;;;;;;;;;23.20;56.50;;;;;;4951213;28;86780;-50
2022/05/28 06:47:44;;;;;;;;;;;23.20;56.60;;;;;;4948927;28;86859;-50
2022/05/28 06:52:54;;;;;;;;;;;23.20;56.60;;;;;;4946257;28;86767;-50
2022/05/28 06:55:19;;;;;;;;;;;23.10;56.60;;;;;;4948209;28;88038;-50
2022/05/28 06:57:45;;;;;;;;;;;23.20;56.60;;;;;;4948612;28;87840;-50
2022/05/28 07:00:11;;;;;;;;;;;23.20;56.60;;;;;;4948850;28;89320;-50
2022/05/28 07:02:37;;;;;;;;;;;23.20;56.60;;;;;;4948866;28;87436;-50
2022/05/28 07:05:02;;;;;;;;;;;23.20;56.60;;;;;;4951523;28;86911;-50
2022/05/28 07:07:28;;;;;;;;;;;23.20;56.60;;;;;;4948699;28;87307;-50
2022/05/28 07:09:53;;;;;;;;;;;23.20;56.70;;;;;;4948851;28;86875;-50
2022/05/28 07:12:19;;;;;;;;;;;23.20;56.70;;;;;;4948716;28;87168;-50
2022/05/28 07:14:45;;;;;;;;;;;23.20;56.70;;;;;;4948266;28;87892;-50
2022/05/28 07:17:10;;;;;;;;;;;23.20;56.70;;;;;;4948745;28;86903;-50
2022/05/28 07:19:36;;;;;;;;;;;23.30;56.80;;;;;;4948689;28;87873;-50
2022/05/28 07:22:02;;;;;;;;;;;23.20;56.70;;;;;;4947596;28;88510;-50
2022/05/28 07:24:27;;;;;;;;;;;23.20;56.70;;;;;;4948246;28;86958;-50
2022/05/28 07:26:53;;;;;;;;;;;23.20;57.40;;;;;;4951182;28;87159;-50
2022/05/28 07:29:19;;;;;;;;;;;23.20;56.80;;;;;;4948856;28;86909;-50
2022/05/28 07:31:45;;;;;;;;;;;23.20;56.80;;;;;;4948750;28;87450;-50
2022/05/28 07:34:11;;;;;;;;;;;23.20;56.90;;;;;;4948159;28;88689;-50
2022/05/28 07:36:36;;;;;;;;;;;23.20;56.90;;;;;;4948464;28;86923;-50
2022/05/28 07:39:02;;;;;;;;;;;23.20;56.90;;;;;;4948813;28;87852;-50
2022/05/28 07:41:28;;;;;;;;;;;23.30;56.90;;;;;;4947797;28;88720;-50
2022/05/28 07:43:54;;;;;;;;;;;23.30;56.80;;;;;;4948249;28;87011;-51
2022/05/28 07:46:22;;;;;;;;;;;23.30;56.80;;;;;;4947718;28;87868;-50
2022/05/28 07:48:47;;;;;;;;;;;23.30;56.90;;;;;;4950254;28;88367;-51
2022/05/28 07:51:13;;;;;;;;;;;23.30;56.90;;;;;;4897507;28;87263;-50
2022/05/28 07:53:39;;;;;;;;;;;23.20;56.90;;;;;;4947810;28;88135;-51
2022/05/28 07:56:06;;;;;;;;;;;23.30;56.80;;;;;;4947725;28;87044;-50
2022/05/28 07:58:31;;;;;;;;;;;23.30;56.80;;;;;;4947525;28;87290;-50
2022/05/28 08:00:57;;;;;;;;;;;23.30;56.80;;;;;;4947643;28;87564;-51
2022/05/28 08:03:23;;;;;;;;;;;23.30;56.80;;;;;;4948533;28;86550;-51
2022/05/28 08:05:50;;;;;;;;;;;23.30;56.80;;;;;;4947569;28;87345;-50
2022/05/28 08:08:17;;;;;;;;;;;23.30;56.80;;;;;;4947872;28;87142;-50
2022/05/28 08:10:42;;;;;;;;;;;23.30;56.90;;;;;;4950440;28;87838;-50
2022/05/28 08:13:10;;;;;;;;;;;23.30;56.80;;;;;;4947475;28;88755;-50
2022/05/28 08:15:36;;;;;;;;;;;23.30;56.90;;;;;;4913153;28;86990;-50
2022/05/28 08:18:02;;;;;;;;;;;23.30;56.90;;;;;;4947679;28;87926;-51
2022/05/28 08:23:12;;;;;;;;;;;23.30;56.90;;;;;;4948045;28;87312;-50
2022/05/28 08:25:39;;;;;;;;;;;23.30;56.90;;;;;;4947712;28;87685;-50
2022/05/28 08:28:11;;;;;;;;;;;23.30;57.00;;;;;;4947727;28;88852;-50
2022/05/28 08:30:40;;;;;;;;;;;23.30;56.90;;;;;;4947616;28;86905;-50
2022/05/28 08:33:10;;;;;;;;;;;23.30;56.90;;;;;;4950005;28;87116;-50
2022/05/28 08:35:36;;;;;;;;;;;23.40;57.00;;;;;;4946955;28;87891;-50
2022/05/28 08:38:06;;;;;;;;;;;23.30;57.00;;;;;;4947635;28;87796;-50
2022/05/28 08:40:33;;;;;;;;;;;23.40;57.10;;;;;;4946777;28;88557;-50
2022/05/28 08:42:59;;;;;;;;;;;23.30;57.00;;;;;;4947345;28;86889;-50
2022/05/28 08:45:24;;;;;;;;;;;23.30;57.00;;;;;;4947456;28;87988;-50
2022/05/28 08:47:51;;;;;;;;;;;23.40;57.10;;;;;;4947183;28;86959;-50
2022/05/28 08:50:17;;;;;;;;;;;23.40;57.10;;;;;;4947375;28;86898;-50
2022/05/28 08:52:48;;;;;;;;;;;23.40;57.10;;;;;;4950291;28;87952;-50
2022/05/28 08:55:19;;;;;;;;;;;23.40;57.10;;;;;;4947142;28;86959;-51
2022/05/28 08:58:03;;;;;;;;;;;23.40;57.10;;;;;;4947307;28;87075;-51
2022/05/28 09:00:44;;;;;;;;;;;23.40;57.10;;;;;;4946215;28;88655;-51
2022/05/28 09:03:24;;;;;;;;;;;23.40;57.30;;;;;;4947089;28;87023;-50
2022/05/28 09:05:56;;;;;;;;;;;23.40;57.10;;;;;;4946842;28;86861;-50
2022/05/28 09:08:25;;;;;;;;;;;23.40;57.20;;;;;;4911674;28;87631;-50
2022/05/28 09:10:52;;;;;;;;;;;23.40;57.20;;;;;;4947333;28;87180;-50
2022/05/28 09:13:26;;;;;;;;;;;23.50;57.30;;;;;;4947229;28;87049;-50
2022/05/28 09:15:53;;;;;;;;;;;23.40;57.20;;;;;;4949386;28;88402;-50
2022/05/28 09:18:19;;;;;;;;;;;23.40;57.30;;;;;;4947520;28;87918;-50
2022/05/28 09:20:46;;;;;;;;;;;23.50;57.30;;;;;;4946737;28;87462;-50
2022/05/28 09:23:12;;;;;;;;;;;23.50;57.20;;;;;;4947011;28;87079;-50
2022/05/28 09:25:43;;;;;;;;;;;23.50;57.30;;;;;;4946295;28;87907;-50
2022/05/28 09:28:11;;;;;;;;;;;23.50;57.30;;;;;;4946136;28;87748;-50
2022/05/28 09:30:37;;;;;;;;;;;23.50;57.30;;;;;;4947109;28;86926;-50
2022/05/28 09:33:31;;;;;;;;;;;23.50;57.60;;;;;;4946784;28;88114;-50
2022/05/28 09:36:02;;;;;;;;;;;23.50;57.30;;;;;;4946039;28;88435;-50
2022/05/28 09:38:28;;;;;;;;;;;23.50;57.90;;;;;;4949680;28;86928;-50
2022/05/28 09:41:14;;;;;;;;;;;23.50;57.30;;;;;;4946281;28;88637;-50
2022/05/28 09:44:05;;;;;;;;;;;23.50;57.30;;;;;;4939447;28;86181;-50
2022/05/28 09:46:30;;;;;;;;;;;23.60;57.30;;;;;;4946659;28;87364;-51
2022/05/28 09:49:00;;;;;;;;;;;23.60;57.30;;;;;;4946177;28;88834;-50
2022/05/28 09:51:27;;;;;;;;;;;23.60;57.40;;;;;;4911439;28;88003;-50
2022/05/28 09:54:20;;;;;;;;;;;23.60;57.40;;;;;;4946713;28;87683;-50
2022/05/28 09:56:51;;;;;;;;;;;23.60;57.60;;;;;;4945944;28;88465;-50
2022/05/28 09:59:19;;;;;;;;;;;23.60;57.60;;;;;;4946497;28;86891;-51
2022/05/28 10:01:52;;;;;;;;;;;23.60;57.50;;;;;;4949052;28;87998;-54
2022/05/28 10:04:30;;;;;;;;;;;23.60;57.50;;;;;;4946590;28;87009;-50
2022/05/28 10:06:59;;;;;;;;;;;23.70;57.60;;;;;;4946195;28;87135;-50
2022/05/28 10:09:29;;;;;;;;;;;23.60;57.80;;;;;;4927996;28;86396;-50
2022/05/28 10:12:15;;;;;;;;;;;23.70;57.60;;;;;;4946303;28;87135;-50
2022/05/28 10:14:40;;;;;;;;;;;23.70;57.50;;;;;;4945910;28;87685;-55
2022/05/28 10:17:06;;;;;;;;;;;23.70;57.50;;;;;;4945115;28;89374;-50
2022/05/28 10:19:34;;;;;;;;;;;23.80;57.50;;;;;;4946289;28;87054;-50
2022/05/28 10:22:04;;;;;;;;;;;23.80;57.50;;;;;;4949758;28;86852;-50
2022/05/28 10:24:36;;;;;;;;;;;23.80;57.50;;;;;;4952419;28;87611;-50
2022/05/28 10:27:02;;;;;;;;;;;23.90;57.30;;;;;;4930890;28;87235;-50
2022/05/28 10:29:38;;;;;;;;;;;23.90;57.50;;;;;;4948268;28;88442;-50
2022/05/28 10:32:15;;;;;;;;;;;23.90;57.40;;;;;;4949433;28;87212;-50
2022/05/28 10:34:40;;;;;;;;;;;23.90;57.30;;;;;;4949945;28;86750;-50
2022/05/28 10:37:06;;;;;;;;;;;23.90;57.40;;;;;;4949025;28;87140;-50
2022/05/28 10:39:32;;;;;;;;;;;23.90;57.30;;;;;;4949232;28;86992;-50
2022/05/28 10:41:58;;;;;;;;;;;23.90;57.30;;;;;;4948403;28;87793;-50
2022/05/28 10:44:24;;;;;;;;;;;23.90;57.30;;;;;;4948539;28;88581;-51
2022/05/28 10:47:08;;;;;;;;;;;23.90;57.30;;;;;;4951485;28;86996;-50
2022/05/28 10:49:50;;;;;;;;;;;24.00;57.40;;;;;;4948607;28;88497;-50
2022/05/28 10:52:27;;;;;;;;;;;24.00;57.30;;;;;;4914356;28;87093;-50
2022/05/28 10:55:07;;;;;;;;;;;24.00;57.40;;;;;;4949152;28;87098;-51
2022/05/28 10:57:52;;;;;;;;;;;24.00;57.50;;;;;;4948822;28;87066;-50
2022/05/28 11:00:19;;;;;;;;;;;24.00;57.50;;;;;;4949494;28;86308;-50
2022/05/28 11:02:48;;;;;;;;;;;24.00;57.50;;;;;;4949001;28;87157;-50
2022/05/28 11:05:31;;;;;;;;;;;24.00;57.50;;;;;;4948575;28;86757;-50
2022/05/28 11:08:00;;;;;;;;;;;24.00;57.40;;;;;;4951182;28;87981;-50
2022/05/28 11:10:32;;;;;;;;;;;24.00;57.40;;;;;;4948647;28;88686;-50
2022/05/28 11:13:13;;;;;;;;;;;24.00;57.40;;;;;;4947669;28;86889;-50
2022/05/28 11:15:41;;;;;;;;;;;24.00;57.40;;;;;;4947954;28;87516;-50
2022/05/28 11:18:17;;;;;;;;;;;24.00;57.50;;;;;;4948137;28;87814;-51
2022/05/28 11:21:01;;;;;;;;;;;24.10;57.40;;;;;;4948574;28;86906;-50
2022/05/28 11:23:50;;;;;;;;;;;24.00;57.40;;;;;;4948876;28;86881;-50
2022/05/28 11:26:24;;;;;;;;;;;24.00;57.40;;;;;;4948740;28;86884;-51
2022/05/28 11:28:50;;;;;;;;;;;24.00;57.50;;;;;;4948509;28;87064;-50
2022/05/28 11:31:21;;;;;;;;;;;24.00;57.50;;;;;;4951041;28;86973;-50
2022/05/28 11:33:49;;;;;;;;;;;24.00;57.50;;;;;;4947744;28;87880;-51
2022/05/28 11:36:24;;;;;;;;;;;24.00;57.60;;;;;;4947860;28;88107;-50
2022/05/28 11:39:02;;;;;;;;;;;24.00;57.60;;;;;;4947702;28;88554;-50
2022/05/28 11:41:35;;;;;;;;;;;24.00;57.60;;;;;;4948203;28;86915;-50
2022/05/28 11:44:16;;;;;;;;;;;24.00;57.60;;;;;;4947973;28;88026;-50
2022/05/28 11:46:41;;;;;;;;;;;24.00;57.60;;;;;;4947783;28;87616;-51
2022/05/28 11:51:57;;;;;;;;;;;24.00;57.70;;;;;;4948299;28;86192;-50
2022/05/28 11:54:29;;;;;;;;;;;24.00;57.70;;;;;;4950330;28;87535;-51
2022/05/28 11:56:58;;;;;;;;;;;24.00;57.70;;;;;;4947527;28;87854;-50
2022/05/28 11:59:26;;;;;;;;;;;24.00;57.70;;;;;;4951334;28;88255;-51
2022/05/28 12:04:28;;;;;;;;;;;24.00;58.60;;;;;;5950093;23;89017;-47
2022/05/28 12:07:00;;;;;;;;;;;24.00;58.70;;;;;;4945974;28;89354;-51
2022/05/28 12:27:23;;;;;;;;;;;24.00;58.50;;;;;;4999579;27;1371568;-58
2022/05/28 12:32:50;;;;;;;;;;;24.20;60.10;;;;;;5066751;22;80501;-62
2022/05/28 12:36:47;;;;;;;;;;;24.20;59.50;;;;;;5490704;22;1369270;-58
2022/05/28 12:39:12;;;;;;;;;;;24.30;60.00;;;;;;5228180;22;81420;-61
2022/05/28 12:44:17;;;;;;;;;;;24.30;60.90;;;;;;5962273;22;81795;-59
2022/05/28 13:21:01;;;;;;;;;;;24.50;61.80;;;;;;6186502;22;1557659;-43
2022/05/28 13:23:27;;;;;;;;;;;24.40;62.10;;;;;;6204314;22;80498;-42
2022/05/28 13:28:31;;;;;;;;;;;24.50;62.40;;;;;;6171215;22;80218;-44
2022/05/28 15:52:35;;;;;;;;;;;23.30;66.30;;;;;;5063869;27;80125;-49
2022/05/28 15:55:01;;;;;;;;;;;23.30;67.30;;;;;;5064356;27;80088;-43
2022/05/28 15:57:29;;;;;;;;;;;23.20;66.10;;;;;;5064527;27;80097;-42
2022/05/28 15:59:55;;;;;;;;;;;23.40;66.00;;;;;;5063694;27;81219;-42
2022/05/28 16:02:22;;;;;;;;;;;23.40;65.80;;;;;;5062103;27;80336;-42
2022/05/28 16:04:48;;;;;;;;;;;23.50;65.60;;;;;;5062219;27;80178;-44
2022/05/28 16:07:13;;;;;;;;;;;23.60;65.40;;;;;;5061510;27;82591;-43
2022/05/28 16:09:39;;;;;;;;;;;23.60;65.30;;;;;;5063204;27;80357;-45
2022/05/28 16:12:04;;;;;;;;;;;23.70;65.10;;;;;;5065822;27;80199;-42
2022/05/28 16:14:31;;;;;;;;;;;23.70;64.90;;;;;;5063479;27;80117;-44
2022/05/28 16:17:01;;;;;;;;;;;23.80;64.70;;;;;;5063714;27;80550;-44
2022/05/28 16:19:27;;;;;;;;;;;23.90;64.60;;;;;;5063693;27;80354;-44
2022/05/28 16:21:52;;;;;;;;;;;23.90;64.50;;;;;;5063824;27;80339;-44
2022/05/28 16:24:18;;;;;;;;;;;24.00;64.30;;;;;;5063886;27;81296;-42
2022/05/28 16:26:44;;;;;;;;;;;24.00;64.20;;;;;;5063511;27;83114;-42
2022/05/28 16:29:11;;;;;;;;;;;24.00;64.00;;;;;;5063624;27;80146;-42
2022/05/28 16:31:43;;;;;;;;;;;24.00;63.90;;;;;;5063373;27;82253;-42
2022/05/28 16:34:13;;;;;;;;;;;24.00;63.80;;;;;;5066427;27;82708;-43
2022/05/28 16:36:39;;;;;;;;;;;24.10;63.80;;;;;;5063337;27;82692;-43
2022/05/28 16:39:06;;;;;;;;;;;24.10;63.70;;;;;;5063800;27;81086;-42
2022/05/28 16:41:32;;;;;;;;;;;24.10;63.70;;;;;;5063516;27;80369;-44
2022/05/28 16:43:57;;;;;;;;;;;24.10;63.70;;;;;;5063372;27;81270;-44
2022/05/28 16:46:23;;;;;;;;;;;24.10;63.60;;;;;;5063294;27;81150;-43
2022/05/28 16:48:48;;;;;;;;;;;24.10;63.70;;;;;;5063540;27;80295;-42
2022/05/28 16:51:14;;;;;;;;;;;24.10;63.70;;;;;;5062885;27;80723;-44
2022/05/28 16:53:39;;;;;;;;;;;24.10;63.60;;;;;;5063290;27;80578;-43
2022/05/28 16:56:17;;;;;;;;;;;24.00;63.60;;;;;;5066332;27;81172;-43
2022/05/28 16:58:43;;;;;;;;;;;24.00;63.60;;;;;;5063115;27;81340;-44
2022/05/28 17:01:09;;;;;;;;;;;24.00;63.50;;;;;;5062939;27;80387;-43
2022/05/28 17:03:35;;;;;;;;;;;24.00;63.60;;;;;;5051875;27;81047;-43
2022/05/28 17:06:00;;;;;;;;;;;24.00;63.60;;;;;;5049019;28;81252;-44
2022/05/28 17:08:26;;;;;;;;;;;24.00;63.50;;;;;;5049910;28;80486;-42
2022/05/28 17:10:51;;;;;;;;;;;24.00;63.40;;;;;;5049269;27;82524;-43
2022/05/28 17:13:19;;;;;;;;;;;24.00;63.40;;;;;;5049534;28;81062;-43
2022/05/28 17:15:44;;;;;;;;;;;24.00;63.30;;;;;;5048980;28;80384;-44
2022/05/28 17:18:10;;;;;;;;;;;24.00;63.30;;;;;;5051972;28;80289;-43
2022/05/28 17:20:36;;;;;;;;;;;24.00;63.30;;;;;;5049577;28;80679;-44
2022/05/28 17:23:01;;;;;;;;;;;24.00;63.30;;;;;;5049483;27;80250;-42
2022/05/28 17:25:29;;;;;;;;;;;24.00;63.30;;;;;;5049298;28;81063;-42
2022/05/28 17:27:55;;;;;;;;;;;24.00;63.30;;;;;;5049279;28;80214;-44
2022/05/28 17:30:20;;;;;;;;;;;24.00;63.30;;;;;;5049309;27;80894;-42
2022/05/28 17:32:46;;;;;;;;;;;24.00;63.20;;;;;;5049335;28;81273;-43
2022/05/28 17:35:12;;;;;;;;;;;24.00;63.20;;;;;;5048772;28;81083;-44
2022/05/28 17:37:45;;;;;;;;;;;24.00;63.20;;;;;;5049145;28;80843;-42
2022/05/28 17:40:12;;;;;;;;;;;24.00;63.20;;;;;;5051820;28;80653;-43
2022/05/28 17:42:38;;;;;;;;;;;24.00;63.10;;;;;;5048896;27;80748;-44
2022/05/28 17:45:05;;;;;;;;;;;24.00;63.20;;;;;;5048759;28;82810;-43
2022/05/28 17:47:31;;;;;;;;;;;24.00;63.10;;;;;;5049024;28;80356;-43
2022/05/28 17:49:56;;;;;;;;;;;24.00;63.00;;;;;;5049108;27;81615;-42
2022/05/28 17:52:22;;;;;;;;;;;24.00;63.30;;;;;;5048524;28;81805;-43
2022/05/28 17:54:48;;;;;;;;;;;24.00;63.00;;;;;;5048834;28;80269;-43
2022/05/28 17:57:14;;;;;;;;;;;24.00;63.00;;;;;;5048869;27;80637;-42
2022/05/28 17:59:40;;;;;;;;;;;24.00;62.90;;;;;;5048433;28;82730;-42
2022/05/28 18:02:14;;;;;;;;;;;24.00;62.90;;;;;;5051670;28;80309;-43
2022/05/28 18:04:41;;;;;;;;;;;23.90;62.80;;;;;;5048832;28;81225;-44
2022/05/28 18:07:07;;;;;;;;;;;23.90;62.80;;;;;;5048601;28;80239;-46
2022/05/28 18:09:32;;;;;;;;;;;23.90;62.80;;;;;;5048893;27;80893;-44
2022/05/28 18:11:58;;;;;;;;;;;24.00;62.80;;;;;;5048509;28;81299;-42
2022/05/28 18:14:24;;;;;;;;;;;23.90;62.70;;;;;;5047531;27;80345;-44
2022/05/28 18:16:50;;;;;;;;;;;23.90;62.70;;;;;;5048461;27;82080;-43
2022/05/28 18:19:19;;;;;;;;;;;23.90;62.70;;;;;;5048292;28;81215;-43
2022/05/28 18:21:45;;;;;;;;;;;23.90;62.70;;;;;;5051001;28;80383;-45
2022/05/28 18:24:12;;;;;;;;;;;23.90;62.70;;;;;;5048311;28;81308;-43
2022/05/28 18:26:40;;;;;;;;;;;23.90;62.70;;;;;;5048374;28;80240;-42
2022/05/28 18:29:06;;;;;;;;;;;23.90;62.70;;;;;;5048459;27;81007;-44
2022/05/28 18:31:32;;;;;;;;;;;23.90;62.60;;;;;;5047880;28;81284;-44
2022/05/28 18:33:58;;;;;;;;;;;23.90;62.60;;;;;;5048169;28;80427;-44
2022/05/28 18:36:31;;;;;;;;;;;23.90;62.60;;;;;;5048310;27;80652;-44
2022/05/28 18:38:57;;;;;;;;;;;23.90;62.60;;;;;;5048298;28;81536;-42
2022/05/28 18:41:23;;;;;;;;;;;23.90;62.60;;;;;;5048449;28;80781;-47
2022/05/28 18:43:48;;;;;;;;;;;23.80;62.50;;;;;;5050697;27;81248;-46
2022/05/28 18:46:14;;;;;;;;;;;23.80;62.50;;;;;;5047806;28;80326;-46
2022/05/28 18:48:41;;;;;;;;;;;23.80;62.60;;;;;;5048345;28;80312;-45
2022/05/28 18:51:07;;;;;;;;;;;23.80;62.50;;;;;;5047272;28;81295;-44
2022/05/28 18:56:18;;;;;;;;;;;23.80;62.50;;;;;;5047787;28;80231;-43
2022/05/28 18:58:43;;;;;;;;;;;23.80;62.60;;;;;;5047193;28;82587;-44
2022/05/28 19:01:09;;;;;;;;;;;23.80;62.60;;;;;;5047907;28;80366;-43
2022/05/28 19:03:36;;;;;;;;;;;23.70;62.50;;;;;;5047958;27;80239;-43
2022/05/28 19:06:02;;;;;;;;;;;23.70;62.60;;;;;;5050174;28;82123;-43
2022/05/28 19:08:29;;;;;;;;;;;23.70;62.70;;;;;;5047642;27;81297;-45
2022/05/28 19:10:55;;;;;;;;;;;23.70;62.60;;;;;;5047575;28;81228;-44
2022/05/28 19:13:20;;;;;;;;;;;23.70;62.60;;;;;;5047853;28;80195;-44
2022/05/28 19:15:47;;;;;;;;;;;23.70;62.50;;;;;;5047490;28;80711;-44
2022/05/28 19:18:16;;;;;;;;;;;23.70;62.50;;;;;;5047248;28;82389;-43
2022/05/28 19:20:44;;;;;;;;;;;23.70;62.50;;;;;;5047568;28;80821;-43
2022/05/28 19:23:09;;;;;;;;;;;23.70;62.50;;;;;;5047967;27;80862;-43
2022/05/28 19:28:20;;;;;;;;;;;23.70;63.20;;;;;;5050309;28;80271;-42
2022/05/28 19:30:47;;;;;;;;;;;23.70;62.60;;;;;;5047158;28;82007;-45
2022/05/28 19:33:16;;;;;;;;;;;23.60;62.60;;;;;;5047231;28;80349;-43
2022/05/28 19:35:42;;;;;;;;;;;23.60;62.60;;;;;;5047386;27;82179;-45
2022/05/28 19:38:07;;;;;;;;;;;23.60;62.60;;;;;;5047442;28;80535;-45
2022/05/28 19:40:33;;;;;;;;;;;23.60;62.60;;;;;;5046907;28;80396;-45
2022/05/28 19:43:02;;;;;;;;;;;23.60;62.50;;;;;;5047430;27;80753;-43
2022/05/28 19:45:30;;;;;;;;;;;23.60;62.40;;;;;;5046929;28;81841;-45
2022/05/28 19:48:00;;;;;;;;;;;23.60;62.50;;;;;;5046997;28;80273;-43
2022/05/28 19:50:25;;;;;;;;;;;23.60;62.50;;;;;;5049227;27;80356;-45
2022/05/28 19:52:51;;;;;;;;;;;23.60;62.40;;;;;;5047240;28;80071;-49
2022/05/28 19:55:16;;;;;;;;;;;23.60;62.40;;;;;;5046730;27;81391;-46
2022/05/28 19:57:43;;;;;;;;;;;23.60;62.40;;;;;;5045776;28;83006;-43
2022/05/28 20:00:09;;;;;;;;;;;23.60;62.30;;;;;;5045938;28;81842;-45
2022/05/28 20:02:36;;;;;;;;;;;23.60;62.30;;;;;;5045735;28;81894;-43
2022/05/28 20:05:02;;;;;;;;;;;23.50;62.20;;;;;;5045249;28;83842;-45
2022/05/28 20:07:28;;;;;;;;;;;23.50;62.30;;;;;;5045224;28;83047;-44
2022/05/28 20:09:53;;;;;;;;;;;23.50;62.30;;;;;;5048323;28;83457;-45
2022/05/28 20:12:19;;;;;;;;;;;23.50;62.30;;;;;;5045775;28;81987;-45
2022/05/28 20:14:45;;;;;;;;;;;23.50;62.20;;;;;;5046060;28;82442;-44
2022/05/28 20:17:11;;;;;;;;;;;23.50;62.30;;;;;;5045424;28;84680;-46
2022/05/28 20:19:37;;;;;;;;;;;23.50;62.30;;;;;;5045693;28;81979;-46
2022/05/28 20:22:13;;;;;;;;;;;23.50;62.30;;;;;;5045527;27;83990;-45
2022/05/28 20:24:39;;;;;;;;;;;23.50;62.30;;;;;;5046123;28;81826;-42
2022/05/28 20:27:05;;;;;;;;;;;23.50;62.20;;;;;;5045568;28;81992;-42
2022/05/28 20:29:30;;;;;;;;;;;23.50;62.30;;;;;;5045837;27;82428;-43
2022/05/28 20:31:57;;;;;;;;;;;23.40;62.20;;;;;;5047306;28;83921;-43
2022/05/28 20:34:26;;;;;;;;;;;23.40;62.30;;;;;;5045677;28;82401;-44
2022/05/28 20:36:52;;;;;;;;;;;23.40;62.20;;;;;;5045063;28;84440;-45
2022/05/28 20:39:17;;;;;;;;;;;23.40;62.30;;;;;;5048593;28;82691;-45
2022/05/28 20:41:43;;;;;;;;;;;23.40;62.30;;;;;;5048959;28;82006;-44
2022/05/28 20:44:09;;;;;;;;;;;23.40;62.20;;;;;;5048660;28;83136;-44
2022/05/28 20:46:35;;;;;;;;;;;23.40;62.20;;;;;;5048714;28;81956;-45
2022/05/28 20:49:01;;;;;;;;;;;23.40;62.30;;;;;;5049370;27;81582;-45
2022/05/28 20:51:27;;;;;;;;;;;23.40;62.20;;;;;;5047901;28;82759;-44
2022/05/28 20:53:53;;;;;;;;;;;23.30;62.30;;;;;;5051336;28;82135;-45
2022/05/28 20:56:19;;;;;;;;;;;23.30;62.20;;;;;;5047754;28;83640;-44
2022/05/28 20:58:45;;;;;;;;;;;23.30;62.20;;;;;;5048639;28;82011;-42
2022/05/28 21:01:20;;;;;;;;;;;23.30;62.20;;;;;;5048468;27;83854;-44
2022/05/28 21:03:46;;;;;;;;;;;23.30;62.20;;;;;;5048802;28;82932;-44
2022/05/28 21:06:12;;;;;;;;;;;23.30;62.20;;;;;;5048186;28;82131;-44
2022/05/28 21:08:37;;;;;;;;;;;23.30;62.20;;;;;;5048461;27;82194;-43
2022/05/28 21:11:03;;;;;;;;;;;23.30;62.30;;;;;;5048285;28;82939;-43
2022/05/28 21:13:29;;;;;;;;;;;23.30;62.30;;;;;;5048928;28;81404;-44
2022/05/28 21:15:55;;;;;;;;;;;23.30;62.20;;;;;;5050900;28;82427;-44
2022/05/28 21:18:25;;;;;;;;;;;23.30;62.30;;;;;;5048284;28;81938;-44
2022/05/28 21:20:50;;;;;;;;;;;23.20;62.30;;;;;;5047615;27;82858;-44
2022/05/28 21:23:16;;;;;;;;;;;23.20;62.30;;;;;;5047993;28;83430;-42
2022/05/28 21:29:49;;;;;;;;;;;23.20;62.20;;;;;;5048031;28;82060;-44
2022/05/28 21:31:11;;;;;;;;;;;23.20;62.20;;;;;;5047880;28;82230;-43
2022/05/28 21:33:37;;;;;;;;;;;23.20;62.30;;;;;;5047905;28;82080;-42
2022/05/28 21:36:02;;;;;;;;;;;23.10;62.30;;;;;;5048101;28;82361;-43
2022/05/28 21:38:29;;;;;;;;;;;23.10;62.20;;;;;;5051268;28;82344;-44
2022/05/28 21:40:54;;;;;;;;;;;23.10;62.20;;;;;;5048087;27;81849;-44
2022/05/28 21:43:20;;;;;;;;;;;23.10;62.30;;;;;;5047649;28;84023;-44
2022/05/28 21:45:47;;;;;;;;;;;23.10;62.40;;;;;;5047354;28;82985;-44
2022/05/28 21:48:12;;;;;;;;;;;23.10;62.40;;;;;;5047730;27;83379;-44
2022/05/28 21:50:38;;;;;;;;;;;23.10;62.30;;;;;;5047146;28;83198;-43
2022/05/28 21:53:08;;;;;;;;;;;23.00;62.30;;;;;;5047822;28;82039;-43
2022/05/28 21:55:34;;;;;;;;;;;23.10;62.30;;;;;;5048107;27;82045;-46
2022/05/28 21:58:00;;;;;;;;;;;23.10;62.40;;;;;;5047492;28;82987;-45